sensor_id;sensor_type;location;lat;lon;timestamp;P1;durP1;ratioP1;P2;durP2;ratioP2
42602;SDS011;28233;55.748;48.752;2022-12-10T00:00:17;6.20;;;1.87;;
42602;SDS011;28233;55.748;48.752;2022-12-10T00:02:20;5.03;;;2.33;;
42602;SDS011;28233;55.748;48.752;2022-12-10T00:04:23;5.80;;;2.30;;
42602;SDS011;28233;55.748;48.752;2022-12-10T00:06:27;3.87;;;1.63;;
42602;SDS011;28233;55.748;48.752;2022-12-10T00:08:33;4.00;;;1.63;;
42602;SDS011;28233;55.748;48.752;2022-12-10T00:10:39;4.90;;;1.60;;
42602;SDS011;28233;55.748;48.752;2022-12-10T00:12:43;6.43;;;2.40;;
42602;SDS011;28233;55.748;48.752;2022-12-10T00:14:45;7.07;;;2.40;;
42602;SDS011;28233;55.748;48.752;2022-12-10T00:16:48;5.67;;;2.17;;
42602;SDS011;28233;55.748;48.752;2022-12-10T00:18:51;7.43;;;1.83;;
42602;SDS011;28233;55.748;48.752;2022-12-10T00:20:55;5.40;;;2.07;;
42602;SDS011;28233;55.748;48.752;2022-12-10T00:22:58;3.80;;;1.50;;
42602;SDS011;28233;55.748;48.752;2022-12-10T00:25:01;4.80;;;2.43;;
42602;SDS011;28233;55.748;48.752;2022-12-10T00:27:04;6.20;;;1.93;;
42602;SDS011;28233;55.748;48.752;2022-12-10T00:29:08;6.27;;;2.60;;
42602;SDS011;28233;55.748;48.752;2022-12-10T00:31:15;4.07;;;2.60;;
42602;SDS011;28233;55.748;48.752;2022-12-10T00:33:22;3.67;;;1.70;;
42602;SDS011;28233;55.748;48.752;2022-12-10T00:35:25;3.03;;;1.67;;
42602;SDS011;28233;55.748;48.752;2022-12-10T00:37:28;5.27;;;2.13;;
42602;SDS011;28233;55.748;48.752;2022-12-10T00:39:31;6.10;;;1.70;;
42602;SDS011;28233;55.748;48.752;2022-12-10T00:41:34;5.90;;;1.93;;
42602;SDS011;28233;55.748;48.752;2022-12-10T00:43:37;2.97;;;1.47;;
42602;SDS011;28233;55.748;48.752;2022-12-10T00:45:40;5.50;;;1.87;;
42602;SDS011;28233;55.748;48.752;2022-12-10T00:47:43;3.03;;;1.57;;
42602;SDS011;28233;55.748;48.752;2022-12-10T00:49:50;4.37;;;2.27;;
42602;SDS011;28233;55.748;48.752;2022-12-10T00:51:53;5.43;;;3.07;;
42602;SDS011;28233;55.748;48.752;2022-12-10T00:53:57;5.60;;;2.00;;
42602;SDS011;28233;55.748;48.752;2022-12-10T00:56:01;7.40;;;3.20;;
42602;SDS011;28233;55.748;48.752;2022-12-10T00:58:05;3.17;;;1.97;;
42602;SDS011;28233;55.748;48.752;2022-12-10T01:00:08;6.63;;;2.50;;
42602;SDS011;28233;55.748;48.752;2022-12-10T01:02:11;8.57;;;1.97;;
42602;SDS011;28233;55.748;48.752;2022-12-10T01:04:15;3.73;;;2.10;;
42602;SDS011;28233;55.748;48.752;2022-12-10T01:06:21;6.80;;;2.50;;
42602;SDS011;28233;55.748;48.752;2022-12-10T01:08:23;4.17;;;2.50;;
42602;SDS011;28233;55.748;48.752;2022-12-10T01:10:26;6.50;;;2.20;;
42602;SDS011;28233;55.748;48.752;2022-12-10T01:12:28;5.17;;;2.27;;
42602;SDS011;28233;55.748;48.752;2022-12-10T01:14:32;4.73;;;2.30;;
42602;SDS011;28233;55.748;48.752;2022-12-10T01:16:35;10.67;;;2.57;;
42602;SDS011;28233;55.748;48.752;2022-12-10T01:18:39;6.23;;;2.10;;
42602;SDS011;28233;55.748;48.752;2022-12-10T01:20:42;4.07;;;1.87;;
42602;SDS011;28233;55.748;48.752;2022-12-10T01:22:45;9.07;;;2.40;;
42602;SDS011;28233;55.748;48.752;2022-12-10T01:24:47;5.67;;;2.33;;
42602;SDS011;28233;55.748;48.752;2022-12-10T01:26:50;3.93;;;1.77;;
42602;SDS011;28233;55.748;48.752;2022-12-10T01:28:53;3.90;;;1.87;;
42602;SDS011;28233;55.748;48.752;2022-12-10T01:30:59;3.40;;;1.87;;
42602;SDS011;28233;55.748;48.752;2022-12-10T01:33:03;4.07;;;2.00;;
42602;SDS011;28233;55.748;48.752;2022-12-10T01:35:06;3.23;;;2.07;;
42602;SDS011;28233;55.748;48.752;2022-12-10T01:37:09;2.83;;;1.57;;
42602;SDS011;28233;55.748;48.752;2022-12-10T01:39:14;7.47;;;2.87;;
42602;SDS011;28233;55.748;48.752;2022-12-10T01:41:20;3.80;;;2.07;;
42602;SDS011;28233;55.748;48.752;2022-12-10T01:43:25;4.63;;;2.60;;
42602;SDS011;28233;55.748;48.752;2022-12-10T01:45:28;4.77;;;2.43;;
42602;SDS011;28233;55.748;48.752;2022-12-10T01:47:31;6.03;;;2.03;;
42602;SDS011;28233;55.748;48.752;2022-12-10T01:49:34;3.70;;;1.93;;
42602;SDS011;28233;55.748;48.752;2022-12-10T01:51:40;4.23;;;2.80;;
42602;SDS011;28233;55.748;48.752;2022-12-10T01:53:44;3.20;;;2.13;;
42602;SDS011;28233;55.748;48.752;2022-12-10T01:55:49;2.47;;;1.60;;
42602;SDS011;28233;55.748;48.752;2022-12-10T01:57:53;3.50;;;2.17;;
42602;SDS011;28233;55.748;48.752;2022-12-10T01:59:57;8.00;;;1.93;;
42602;SDS011;28233;55.748;48.752;2022-12-10T02:07:02;7.90;;;3.45;;
42602;SDS011;28233;55.748;48.752;2022-12-10T02:11:54;5.87;;;3.00;;
42602;SDS011;28233;55.748;48.752;2022-12-10T02:14:29;7.00;;;3.67;;
42602;SDS011;28233;55.748;48.752;2022-12-10T02:16:55;7.53;;;2.50;;
42602;SDS011;28233;55.748;48.752;2022-12-10T02:21:37;6.40;;;2.10;;
42602;SDS011;28233;55.748;48.752;2022-12-10T02:23:43;5.13;;;2.80;;
42602;SDS011;28233;55.748;48.752;2022-12-10T02:25:53;6.53;;;2.60;;
42602;SDS011;28233;55.748;48.752;2022-12-10T02:30:17;4.37;;;1.80;;
42602;SDS011;28233;55.748;48.752;2022-12-10T02:32:24;4.13;;;2.33;;
42602;SDS011;28233;55.748;48.752;2022-12-10T02:34:33;3.38;;;2.10;;
42602;SDS011;28233;55.748;48.752;2022-12-10T02:36:39;4.77;;;2.10;;
42602;SDS011;28233;55.748;48.752;2022-12-10T02:38:46;9.07;;;2.27;;
42602;SDS011;28233;55.748;48.752;2022-12-10T02:40:54;37.40;;;4.90;;
42602;SDS011;28233;55.748;48.752;2022-12-10T02:43:01;3.20;;;1.70;;
42602;SDS011;28233;55.748;48.752;2022-12-10T02:45:03;4.77;;;2.13;;
42602;SDS011;28233;55.748;48.752;2022-12-10T02:47:07;4.50;;;2.07;;
42602;SDS011;28233;55.748;48.752;2022-12-10T02:49:11;3.90;;;1.90;;
42602;SDS011;28233;55.748;48.752;2022-12-10T02:51:17;6.80;;;2.47;;
42602;SDS011;28233;55.748;48.752;2022-12-10T02:53:20;5.70;;;2.60;;
42602;SDS011;28233;55.748;48.752;2022-12-10T02:55:22;5.03;;;2.00;;
42602;SDS011;28233;55.748;48.752;2022-12-10T02:57:50;4.33;;;2.03;;
42602;SDS011;28233;55.748;48.752;2022-12-10T03:05:09;8.40;;;2.70;;
42602;SDS011;28233;55.748;48.752;2022-12-10T03:07:43;4.80;;;2.43;;
42602;SDS011;28233;55.748;48.752;2022-12-10T03:12:35;9.07;;;2.83;;
42602;SDS011;28233;55.748;48.752;2022-12-10T03:14:43;6.27;;;2.57;;
42602;SDS011;28233;55.748;48.752;2022-12-10T03:16:49;6.50;;;2.77;;
42602;SDS011;28233;55.748;48.752;2022-12-10T03:18:56;6.63;;;2.30;;
42602;SDS011;28233;55.748;48.752;2022-12-10T03:21:04;8.60;;;2.60;;
42602;SDS011;28233;55.748;48.752;2022-12-10T03:23:09;8.17;;;2.53;;
42602;SDS011;28233;55.748;48.752;2022-12-10T03:25:20;8.60;;;2.70;;
42602;SDS011;28233;55.748;48.752;2022-12-10T03:27:26;4.00;;;3.17;;
42602;SDS011;28233;55.748;48.752;2022-12-10T03:29:33;5.00;;;2.67;;
42602;SDS011;28233;55.748;48.752;2022-12-10T03:31:42;4.40;;;2.37;;
42602;SDS011;28233;55.748;48.752;2022-12-10T03:33:46;5.23;;;2.70;;
42602;SDS011;28233;55.748;48.752;2022-12-10T03:35:51;11.50;;;4.63;;
42602;SDS011;28233;55.748;48.752;2022-12-10T03:37:53;6.17;;;2.57;;
42602;SDS011;28233;55.748;48.752;2022-12-10T03:39:57;6.17;;;3.10;;
42602;SDS011;28233;55.748;48.752;2022-12-10T03:42:01;8.77;;;2.97;;
42602;SDS011;28233;55.748;48.752;2022-12-10T03:44:04;6.40;;;3.03;;
42602;SDS011;28233;55.748;48.752;2022-12-10T03:46:06;4.37;;;2.03;;
42602;SDS011;28233;55.748;48.752;2022-12-10T03:48:09;10.63;;;3.37;;
42602;SDS011;28233;55.748;48.752;2022-12-10T03:50:12;5.87;;;2.97;;
42602;SDS011;28233;55.748;48.752;2022-12-10T03:52:14;7.40;;;2.77;;
42602;SDS011;28233;55.748;48.752;2022-12-10T03:54:17;6.33;;;2.97;;
42602;SDS011;28233;55.748;48.752;2022-12-10T03:56:21;6.40;;;2.90;;
42602;SDS011;28233;55.748;48.752;2022-12-10T03:58:24;6.43;;;2.37;;
42602;SDS011;28233;55.748;48.752;2022-12-10T04:00:26;6.37;;;3.40;;
42602;SDS011;28233;55.748;48.752;2022-12-10T04:02:29;5.57;;;2.60;;
42602;SDS011;28233;55.748;48.752;2022-12-10T04:04:32;5.27;;;2.93;;
42602;SDS011;28233;55.748;48.752;2022-12-10T04:06:36;5.40;;;3.80;;
42602;SDS011;28233;55.748;48.752;2022-12-10T04:08:40;8.13;;;3.33;;
42602;SDS011;28233;55.748;48.752;2022-12-10T04:10:42;6.37;;;3.10;;
42602;SDS011;28233;55.748;48.752;2022-12-10T04:12:45;8.87;;;3.57;;
42602;SDS011;28233;55.748;48.752;2022-12-10T04:15:07;10.33;;;3.53;;
42602;SDS011;28233;55.748;48.752;2022-12-10T04:17:30;6.60;;;3.13;;
42602;SDS011;28233;55.748;48.752;2022-12-10T04:19:34;21.50;;;5.10;;
42602;SDS011;28233;55.748;48.752;2022-12-10T04:21:38;9.03;;;2.90;;
42602;SDS011;28233;55.748;48.752;2022-12-10T04:24:00;10.73;;;2.97;;
42602;SDS011;28233;55.748;48.752;2022-12-10T04:26:21;6.63;;;3.10;;
42602;SDS011;28233;55.748;48.752;2022-12-10T04:28:42;11.13;;;3.77;;
42602;SDS011;28233;55.748;48.752;2022-12-10T04:30:45;8.33;;;4.10;;
42602;SDS011;28233;55.748;48.752;2022-12-10T04:32:47;12.90;;;3.50;;
42602;SDS011;28233;55.748;48.752;2022-12-10T04:34:50;8.90;;;3.80;;
42602;SDS011;28233;55.748;48.752;2022-12-10T04:36:54;8.23;;;3.50;;
42602;SDS011;28233;55.748;48.752;2022-12-10T04:38:56;8.70;;;4.13;;
42602;SDS011;28233;55.748;48.752;2022-12-10T04:40:59;9.83;;;3.43;;
42602;SDS011;28233;55.748;48.752;2022-12-10T04:43:02;5.70;;;3.70;;
42602;SDS011;28233;55.748;48.752;2022-12-10T04:45:05;7.73;;;3.47;;
42602;SDS011;28233;55.748;48.752;2022-12-10T04:47:08;10.77;;;3.67;;
42602;SDS011;28233;55.748;48.752;2022-12-10T04:49:11;8.23;;;4.17;;
42602;SDS011;28233;55.748;48.752;2022-12-10T04:51:14;9.50;;;3.83;;
42602;SDS011;28233;55.748;48.752;2022-12-10T04:53:17;7.77;;;3.80;;
42602;SDS011;28233;55.748;48.752;2022-12-10T04:55:20;6.73;;;2.83;;
42602;SDS011;28233;55.748;48.752;2022-12-10T04:57:22;10.83;;;4.90;;
42602;SDS011;28233;55.748;48.752;2022-12-10T04:59:25;10.03;;;3.87;;
42602;SDS011;28233;55.748;48.752;2022-12-10T05:01:28;21.20;;;5.20;;
42602;SDS011;28233;55.748;48.752;2022-12-10T05:03:31;6.43;;;4.03;;
42602;SDS011;28233;55.748;48.752;2022-12-10T05:05:34;7.07;;;4.00;;
42602;SDS011;28233;55.748;48.752;2022-12-10T05:07:37;7.10;;;3.80;;
42602;SDS011;28233;55.748;48.752;2022-12-10T05:09:40;7.47;;;3.87;;
42602;SDS011;28233;55.748;48.752;2022-12-10T05:11:42;5.50;;;3.43;;
42602;SDS011;28233;55.748;48.752;2022-12-10T05:13:48;11.20;;;3.37;;
42602;SDS011;28233;55.748;48.752;2022-12-10T05:15:51;10.80;;;3.77;;
42602;SDS011;28233;55.748;48.752;2022-12-10T05:17:53;7.93;;;3.57;;
42602;SDS011;28233;55.748;48.752;2022-12-10T05:19:56;8.73;;;3.27;;
42602;SDS011;28233;55.748;48.752;2022-12-10T05:21:59;8.33;;;3.80;;
42602;SDS011;28233;55.748;48.752;2022-12-10T05:24:20;6.85;;;3.03;;
42602;SDS011;28233;55.748;48.752;2022-12-10T05:26:23;10.43;;;3.73;;
42602;SDS011;28233;55.748;48.752;2022-12-10T05:28:26;11.17;;;4.30;;
42602;SDS011;28233;55.748;48.752;2022-12-10T05:30:29;7.77;;;4.03;;
42602;SDS011;28233;55.748;48.752;2022-12-10T05:32:32;10.00;;;3.97;;
42602;SDS011;28233;55.748;48.752;2022-12-10T05:34:35;9.50;;;3.77;;
42602;SDS011;28233;55.748;48.752;2022-12-10T05:36:37;13.93;;;3.97;;
42602;SDS011;28233;55.748;48.752;2022-12-10T05:38:40;7.93;;;3.50;;
42602;SDS011;28233;55.748;48.752;2022-12-10T05:40:44;6.30;;;3.20;;
42602;SDS011;28233;55.748;48.752;2022-12-10T05:42:46;11.43;;;4.10;;
42602;SDS011;28233;55.748;48.752;2022-12-10T05:44:49;10.50;;;4.30;;
42602;SDS011;28233;55.748;48.752;2022-12-10T05:46:51;6.17;;;3.40;;
42602;SDS011;28233;55.748;48.752;2022-12-10T05:48:54;5.67;;;2.97;;
42602;SDS011;28233;55.748;48.752;2022-12-10T05:50:58;9.10;;;3.73;;
42602;SDS011;28233;55.748;48.752;2022-12-10T05:53:05;6.90;;;3.80;;
42602;SDS011;28233;55.748;48.752;2022-12-10T05:55:07;9.07;;;3.83;;
42602;SDS011;28233;55.748;48.752;2022-12-10T05:57:10;8.60;;;4.30;;
42602;SDS011;28233;55.748;48.752;2022-12-10T05:59:13;7.53;;;3.57;;
42602;SDS011;28233;55.748;48.752;2022-12-10T06:01:19;9.87;;;3.77;;
42602;SDS011;28233;55.748;48.752;2022-12-10T06:03:24;10.17;;;4.03;;
42602;SDS011;28233;55.748;48.752;2022-12-10T06:05:29;7.70;;;3.13;;
42602;SDS011;28233;55.748;48.752;2022-12-10T06:07:38;12.30;;;4.23;;
42602;SDS011;28233;55.748;48.752;2022-12-10T06:09:41;8.17;;;3.37;;
42602;SDS011;28233;55.748;48.752;2022-12-10T06:11:44;9.00;;;4.47;;
42602;SDS011;28233;55.748;48.752;2022-12-10T06:13:47;5.27;;;3.53;;
42602;SDS011;28233;55.748;48.752;2022-12-10T06:15:56;9.60;;;3.90;;
42602;SDS011;28233;55.748;48.752;2022-12-10T06:17:59;14.77;;;4.83;;
42602;SDS011;28233;55.748;48.752;2022-12-10T06:20:02;11.53;;;4.27;;
42602;SDS011;28233;55.748;48.752;2022-12-10T06:22:05;12.13;;;4.30;;
42602;SDS011;28233;55.748;48.752;2022-12-10T06:24:07;8.57;;;2.80;;
42602;SDS011;28233;55.748;48.752;2022-12-10T06:26:12;7.60;;;3.80;;
42602;SDS011;28233;55.748;48.752;2022-12-10T06:28:16;9.10;;;3.67;;
42602;SDS011;28233;55.748;48.752;2022-12-10T06:30:19;10.53;;;4.77;;
42602;SDS011;28233;55.748;48.752;2022-12-10T06:32:21;12.60;;;5.33;;
42602;SDS011;28233;55.748;48.752;2022-12-10T06:34:24;10.03;;;4.83;;
42602;SDS011;28233;55.748;48.752;2022-12-10T06:36:27;11.17;;;4.50;;
42602;SDS011;28233;55.748;48.752;2022-12-10T06:38:30;11.07;;;4.63;;
42602;SDS011;28233;55.748;48.752;2022-12-10T06:40:32;10.30;;;4.20;;
42602;SDS011;28233;55.748;48.752;2022-12-10T06:42:35;13.80;;;4.77;;
42602;SDS011;28233;55.748;48.752;2022-12-10T06:44:38;14.20;;;4.17;;
42602;SDS011;28233;55.748;48.752;2022-12-10T06:46:41;9.57;;;4.20;;
42602;SDS011;28233;55.748;48.752;2022-12-10T06:48:44;7.43;;;4.50;;
42602;SDS011;28233;55.748;48.752;2022-12-10T06:50:47;9.70;;;5.30;;
42602;SDS011;28233;55.748;48.752;2022-12-10T06:52:50;7.20;;;3.40;;
42602;SDS011;28233;55.748;48.752;2022-12-10T06:54:56;15.53;;;5.17;;
42602;SDS011;28233;55.748;48.752;2022-12-10T06:56:58;12.60;;;4.40;;
42602;SDS011;28233;55.748;48.752;2022-12-10T06:59:03;11.37;;;5.67;;
42602;SDS011;28233;55.748;48.752;2022-12-10T07:01:10;15.33;;;6.27;;
42602;SDS011;28233;55.748;48.752;2022-12-10T07:03:15;8.13;;;4.67;;
42602;SDS011;28233;55.748;48.752;2022-12-10T07:05:18;14.40;;;4.90;;
42602;SDS011;28233;55.748;48.752;2022-12-10T07:07:21;12.33;;;5.00;;
42602;SDS011;28233;55.748;48.752;2022-12-10T07:09:23;11.33;;;5.30;;
42602;SDS011;28233;55.748;48.752;2022-12-10T07:11:26;12.67;;;6.73;;
42602;SDS011;28233;55.748;48.752;2022-12-10T07:13:29;12.13;;;5.67;;
42602;SDS011;28233;55.748;48.752;2022-12-10T07:15:31;13.30;;;5.00;;
42602;SDS011;28233;55.748;48.752;2022-12-10T07:17:34;9.90;;;5.17;;
42602;SDS011;28233;55.748;48.752;2022-12-10T07:19:37;14.43;;;6.40;;
42602;SDS011;28233;55.748;48.752;2022-12-10T07:21:40;14.67;;;6.77;;
42602;SDS011;28233;55.748;48.752;2022-12-10T07:23:45;13.70;;;6.20;;
42602;SDS011;28233;55.748;48.752;2022-12-10T07:25:47;16.20;;;6.30;;
42602;SDS011;28233;55.748;48.752;2022-12-10T07:27:50;10.40;;;5.80;;
42602;SDS011;28233;55.748;48.752;2022-12-10T07:29:58;13.63;;;6.13;;
42602;SDS011;28233;55.748;48.752;2022-12-10T07:32:01;15.20;;;6.20;;
42602;SDS011;28233;55.748;48.752;2022-12-10T07:34:04;12.67;;;6.27;;
42602;SDS011;28233;55.748;48.752;2022-12-10T07:36:08;17.23;;;6.67;;
42602;SDS011;28233;55.748;48.752;2022-12-10T07:38:12;17.43;;;7.20;;
42602;SDS011;28233;55.748;48.752;2022-12-10T07:40:15;14.10;;;6.43;;
42602;SDS011;28233;55.748;48.752;2022-12-10T07:42:18;15.17;;;6.97;;
42602;SDS011;28233;55.748;48.752;2022-12-10T07:44:21;19.17;;;7.10;;
42602;SDS011;28233;55.748;48.752;2022-12-10T07:46:28;13.47;;;5.70;;
42602;SDS011;28233;55.748;48.752;2022-12-10T07:48:33;21.27;;;7.83;;
42602;SDS011;28233;55.748;48.752;2022-12-10T07:50:36;19.80;;;8.57;;
42602;SDS011;28233;55.748;48.752;2022-12-10T07:52:39;18.23;;;7.73;;
42602;SDS011;28233;55.748;48.752;2022-12-10T07:54:42;29.40;;;9.23;;
42602;SDS011;28233;55.748;48.752;2022-12-10T07:56:52;15.03;;;6.83;;
42602;SDS011;28233;55.748;48.752;2022-12-10T07:58:55;17.57;;;7.40;;
42602;SDS011;28233;55.748;48.752;2022-12-10T08:00:57;15.93;;;6.83;;
42602;SDS011;28233;55.748;48.752;2022-12-10T08:03:00;20.93;;;8.97;;
42602;SDS011;28233;55.748;48.752;2022-12-10T08:05:03;21.50;;;8.03;;
42602;SDS011;28233;55.748;48.752;2022-12-10T08:07:06;18.50;;;9.20;;
42602;SDS011;28233;55.748;48.752;2022-12-10T08:09:09;15.10;;;8.13;;
42602;SDS011;28233;55.748;48.752;2022-12-10T08:11:14;39.00;;;9.27;;
42602;SDS011;28233;55.748;48.752;2022-12-10T08:13:17;24.50;;;9.93;;
42602;SDS011;28233;55.748;48.752;2022-12-10T08:15:20;18.40;;;8.13;;
42602;SDS011;28233;55.748;48.752;2022-12-10T08:17:23;21.33;;;9.00;;
42602;SDS011;28233;55.748;48.752;2022-12-10T08:19:25;20.17;;;9.30;;
42602;SDS011;28233;55.748;48.752;2022-12-10T08:21:33;19.37;;;10.13;;
42602;SDS011;28233;55.748;48.752;2022-12-10T08:23:35;21.47;;;8.87;;
42602;SDS011;28233;55.748;48.752;2022-12-10T08:25:38;20.70;;;8.47;;
42602;SDS011;28233;55.748;48.752;2022-12-10T08:27:41;25.70;;;9.77;;
42602;SDS011;28233;55.748;48.752;2022-12-10T08:29:44;20.80;;;10.57;;
42602;SDS011;28233;55.748;48.752;2022-12-10T08:31:47;25.00;;;11.67;;
42602;SDS011;28233;55.748;48.752;2022-12-10T08:33:50;24.93;;;10.50;;
42602;SDS011;28233;55.748;48.752;2022-12-10T08:35:56;68.77;;;14.33;;
42602;SDS011;28233;55.748;48.752;2022-12-10T08:38:00;22.70;;;11.03;;
42602;SDS011;28233;55.748;48.752;2022-12-10T08:40:03;25.80;;;10.60;;
42602;SDS011;28233;55.748;48.752;2022-12-10T08:42:06;19.67;;;9.53;;
42602;SDS011;28233;55.748;48.752;2022-12-10T08:44:08;26.07;;;12.30;;
42602;SDS011;28233;55.748;48.752;2022-12-10T08:46:12;19.63;;;10.17;;
42602;SDS011;28233;55.748;48.752;2022-12-10T08:48:16;38.53;;;12.63;;
42602;SDS011;28233;55.748;48.752;2022-12-10T08:50:19;24.67;;;12.43;;
42602;SDS011;28233;55.748;48.752;2022-12-10T08:52:21;27.23;;;12.47;;
42602;SDS011;28233;55.748;48.752;2022-12-10T08:54:24;24.20;;;11.20;;
42602;SDS011;28233;55.748;48.752;2022-12-10T08:56:27;22.50;;;11.73;;
42602;SDS011;28233;55.748;48.752;2022-12-10T08:58:29;26.83;;;11.87;;
42602;SDS011;28233;55.748;48.752;2022-12-10T09:00:32;22.77;;;9.87;;
42602;SDS011;28233;55.748;48.752;2022-12-10T09:02:35;25.53;;;10.87;;
42602;SDS011;28233;55.748;48.752;2022-12-10T09:04:38;24.67;;;10.53;;
42602;SDS011;28233;55.748;48.752;2022-12-10T09:06:41;24.90;;;11.97;;
42602;SDS011;28233;55.748;48.752;2022-12-10T09:08:44;26.43;;;12.13;;
42602;SDS011;28233;55.748;48.752;2022-12-10T09:10:47;22.73;;;12.93;;
42602;SDS011;28233;55.748;48.752;2022-12-10T09:12:49;23.10;;;11.67;;
42602;SDS011;28233;55.748;48.752;2022-12-10T09:14:52;27.23;;;11.97;;
42602;SDS011;28233;55.748;48.752;2022-12-10T09:16:55;22.73;;;11.10;;
42602;SDS011;28233;55.748;48.752;2022-12-10T09:18:58;30.37;;;14.03;;
42602;SDS011;28233;55.748;48.752;2022-12-10T09:21:05;24.10;;;10.73;;
42602;SDS011;28233;55.748;48.752;2022-12-10T09:23:09;24.50;;;10.10;;
42602;SDS011;28233;55.748;48.752;2022-12-10T09:25:12;28.43;;;11.03;;
42602;SDS011;28233;55.748;48.752;2022-12-10T09:27:17;24.43;;;9.70;;
42602;SDS011;28233;55.748;48.752;2022-12-10T09:29:19;27.27;;;11.83;;
42602;SDS011;28233;55.748;48.752;2022-12-10T09:31:22;20.97;;;9.67;;
42602;SDS011;28233;55.748;48.752;2022-12-10T09:33:26;24.77;;;11.27;;
42602;SDS011;28233;55.748;48.752;2022-12-10T09:35:29;22.27;;;10.93;;
42602;SDS011;28233;55.748;48.752;2022-12-10T09:37:32;22.13;;;12.23;;
42602;SDS011;28233;55.748;48.752;2022-12-10T09:39:35;26.53;;;12.47;;
42602;SDS011;28233;55.748;48.752;2022-12-10T09:48:54;23.90;;;11.27;;
42602;SDS011;28233;55.748;48.752;2022-12-10T09:51:22;21.53;;;10.57;;
42602;SDS011;28233;55.748;48.752;2022-12-10T09:53:27;34.50;;;10.87;;
42602;SDS011;28233;55.748;48.752;2022-12-10T09:55:38;25.93;;;12.53;;
42602;SDS011;28233;55.748;48.752;2022-12-10T09:57:48;24.60;;;9.83;;
42602;SDS011;28233;55.748;48.752;2022-12-10T09:59:52;28.90;;;11.67;;
42602;SDS011;28233;55.748;48.752;2022-12-10T10:02:00;26.60;;;12.13;;
42602;SDS011;28233;55.748;48.752;2022-12-10T10:04:04;23.07;;;10.87;;
42602;SDS011;28233;55.748;48.752;2022-12-10T10:06:08;21.80;;;10.57;;
42602;SDS011;28233;55.748;48.752;2022-12-10T10:08:22;22.00;;;11.17;;
42602;SDS011;28233;55.748;48.752;2022-12-10T10:10:36;21.83;;;11.02;;
42602;SDS011;28233;55.748;48.752;2022-12-10T10:12:41;25.30;;;9.67;;
42602;SDS011;28233;55.748;48.752;2022-12-10T10:14:45;20.60;;;10.60;;
42602;SDS011;28233;55.748;48.752;2022-12-10T10:16:48;23.20;;;11.03;;
42602;SDS011;28233;55.748;48.752;2022-12-10T10:19:13;22.20;;;11.17;;
42602;SDS011;28233;55.748;48.752;2022-12-10T10:21:23;21.23;;;10.83;;
42602;SDS011;28233;55.748;48.752;2022-12-10T10:23:37;31.60;;;11.70;;
42602;SDS011;28233;55.748;48.752;2022-12-10T10:25:43;20.00;;;10.33;;
42602;SDS011;28233;55.748;48.752;2022-12-10T10:27:46;21.83;;;10.37;;
42602;SDS011;28233;55.748;48.752;2022-12-10T10:29:50;28.60;;;12.23;;
42602;SDS011;28233;55.748;48.752;2022-12-10T10:32:15;24.17;;;10.93;;
42602;SDS011;28233;55.748;48.752;2022-12-10T10:34:21;21.47;;;11.37;;
42602;SDS011;28233;55.748;48.752;2022-12-10T10:36:29;19.13;;;9.50;;
42602;SDS011;28233;55.748;48.752;2022-12-10T10:38:35;22.00;;;9.93;;
42602;SDS011;28233;55.748;48.752;2022-12-10T10:42:44;26.50;;;11.77;;
42602;SDS011;28233;55.748;48.752;2022-12-10T10:44:47;21.80;;;10.00;;
42602;SDS011;28233;55.748;48.752;2022-12-10T10:46:51;28.67;;;12.17;;
42602;SDS011;28233;55.748;48.752;2022-12-10T10:49:12;24.10;;;10.90;;
42602;SDS011;28233;55.748;48.752;2022-12-10T10:51:26;17.90;;;10.37;;
42602;SDS011;28233;55.748;48.752;2022-12-10T10:54:03;21.97;;;9.33;;
42602;SDS011;28233;55.748;48.752;2022-12-10T10:56:03;16.10;;;8.33;;
42602;SDS011;28233;55.748;48.752;2022-12-10T10:58:16;18.30;;;9.93;;
42602;SDS011;28233;55.748;48.752;2022-12-10T11:00:21;20.10;;;9.30;;
42602;SDS011;28233;55.748;48.752;2022-12-10T11:04:44;20.33;;;10.23;;
42602;SDS011;28233;55.748;48.752;2022-12-10T11:06:50;19.03;;;11.53;;
42602;SDS011;28233;55.748;48.752;2022-12-10T11:08:57;20.43;;;9.60;;
42602;SDS011;28233;55.748;48.752;2022-12-10T11:11:04;24.20;;;10.50;;
42602;SDS011;28233;55.748;48.752;2022-12-10T11:13:46;23.08;;;10.20;;
42602;SDS011;28233;55.748;48.752;2022-12-10T11:15:41;20.30;;;10.07;;
42602;SDS011;28233;55.748;48.752;2022-12-10T11:17:48;28.50;;;10.43;;
42602;SDS011;28233;55.748;48.752;2022-12-10T11:22:16;22.57;;;10.67;;
42602;SDS011;28233;55.748;48.752;2022-12-10T11:24:22;20.93;;;10.17;;
42602;SDS011;28233;55.748;48.752;2022-12-10T11:31:39;18.87;;;9.93;;
42602;SDS011;28233;55.748;48.752;2022-12-10T11:33:58;18.00;;;9.90;;
42602;SDS011;28233;55.748;48.752;2022-12-10T11:40:53;19.10;;;8.53;;
42602;SDS011;28233;55.748;48.752;2022-12-10T11:43:17;22.63;;;10.20;;
42602;SDS011;28233;55.748;48.752;2022-12-10T11:50:47;42.00;;;10.73;;
42602;SDS011;28233;55.748;48.752;2022-12-10T12:00:37;21.93;;;10.73;;
42602;SDS011;28233;55.748;48.752;2022-12-10T12:12:57;23.13;;;9.00;;
42602;SDS011;28233;55.748;48.752;2022-12-10T12:19:36;19.90;;;9.00;;
42602;SDS011;28233;55.748;48.752;2022-12-10T12:21:42;18.80;;;10.10;;
42602;SDS011;28233;55.748;48.752;2022-12-10T12:23:57;17.30;;;8.73;;
42602;SDS011;28233;55.748;48.752;2022-12-10T12:26:31;21.97;;;8.60;;
42602;SDS011;28233;55.748;48.752;2022-12-10T12:28:44;23.40;;;9.90;;
42602;SDS011;28233;55.748;48.752;2022-12-10T12:31:05;25.43;;;10.20;;
42602;SDS011;28233;55.748;48.752;2022-12-10T12:36:33;20.90;;;9.97;;
42602;SDS011;28233;55.748;48.752;2022-12-10T12:40:42;17.00;;;8.33;;
42602;SDS011;28233;55.748;48.752;2022-12-10T12:42:58;13.85;;;7.82;;
42602;SDS011;28233;55.748;48.752;2022-12-10T12:45:19;16.13;;;7.70;;
42602;SDS011;28233;55.748;48.752;2022-12-10T12:47:39;16.67;;;8.43;;
42602;SDS011;28233;55.748;48.752;2022-12-10T12:49:50;16.70;;;8.60;;
42602;SDS011;28233;55.748;48.752;2022-12-10T12:52:43;17.97;;;8.77;;
42602;SDS011;28233;55.748;48.752;2022-12-10T12:54:36;21.87;;;9.17;;
42602;SDS011;28233;55.748;48.752;2022-12-10T13:00:05;18.60;;;8.23;;
42602;SDS011;28233;55.748;48.752;2022-12-10T13:01:54;19.17;;;9.40;;
42602;SDS011;28233;55.748;48.752;2022-12-10T13:04:01;23.63;;;9.77;;
42602;SDS011;28233;55.748;48.752;2022-12-10T13:06:39;18.90;;;8.73;;
42602;SDS011;28233;55.748;48.752;2022-12-10T13:08:41;16.20;;;9.10;;
42602;SDS011;28233;55.748;48.752;2022-12-10T13:13:37;16.93;;;7.40;;
42602;SDS011;28233;55.748;48.752;2022-12-10T13:15:34;18.60;;;8.23;;
42602;SDS011;28233;55.748;48.752;2022-12-10T13:18:00;15.20;;;7.90;;
42602;SDS011;28233;55.748;48.752;2022-12-10T13:24:44;14.35;;;6.88;;
42602;SDS011;28233;55.748;48.752;2022-12-10T13:33:24;15.53;;;8.13;;
42602;SDS011;28233;55.748;48.752;2022-12-10T13:35:28;16.20;;;8.33;;
42602;SDS011;28233;55.748;48.752;2022-12-10T13:37:33;22.33;;;9.07;;
42602;SDS011;28233;55.748;48.752;2022-12-10T13:39:46;15.60;;;8.50;;
42602;SDS011;28233;55.748;48.752;2022-12-10T13:49:15;16.47;;;7.90;;
42602;SDS011;28233;55.748;48.752;2022-12-10T13:51:23;23.27;;;9.47;;
42602;SDS011;28233;55.748;48.752;2022-12-10T13:55:59;22.03;;;8.50;;
42602;SDS011;28233;55.748;48.752;2022-12-10T14:07:09;20.00;;;9.00;;
42602;SDS011;28233;55.748;48.752;2022-12-10T14:11:37;11.93;;;6.60;;
42602;SDS011;28233;55.748;48.752;2022-12-10T14:13:44;16.40;;;7.67;;
42602;SDS011;28233;55.748;48.752;2022-12-10T14:15:53;17.07;;;7.80;;